Time;durP1;ratioP1;P1;durP2;ratioP2;P2;SDS_P1;SDS_P2;PMS_P1;PMS_P2;Temp;Humidity;BMP_temperature;BMP_pressure;BME280_temperature;BME280_humidity;BME280_pressure;Samples;Min_cycle;Max_cycle;Signal;HPM_P1;HPM_P2
2021/05/12 00:00:34;;;;;;;11.88;9.32;;;12.90;99.90;;;;;;5057720;28;20151;-66
2021/05/12 00:02:59;;;;;;;10.18;8.15;;;12.90;99.90;;;;;;5060042;28;20048;-66
2021/05/12 00:05:27;;;;;;;11.75;9.13;;;12.90;99.90;;;;;;5058279;28;20382;-66
2021/05/12 00:07:53;;;;;;;13.25;9.57;;;12.90;99.90;;;;;;5056837;28;20044;-66
2021/05/12 00:10:21;;;;;;;9.70;8.07;;;12.90;99.90;;;;;;5061262;28;20040;-66
2021/05/12 00:12:47;;;;;;;12.30;9.02;;;12.90;99.90;;;;;;5059685;28;20036;-66
2021/05/12 00:15:18;;;;;;;10.55;9.45;;;12.90;99.90;;;;;;5056951;28;20451;-66
2021/05/12 00:17:48;;;;;;;10.98;9.85;;;12.90;99.90;;;;;;5060585;28;20167;-66
2021/05/12 00:20:20;;;;;;;14.32;10.60;;;12.90;99.90;;;;;;5058021;28;20029;-66
2021/05/12 00:25:15;;;;;;;10.85;9.82;;;12.80;99.90;;;;;;5056300;28;20037;-66
2021/05/12 00:27:41;;;;;;;11.88;9.52;;;12.80;99.90;;;;;;5060121;28;20132;-66
2021/05/12 00:30:12;;;;;;;10.70;9.70;;;12.80;99.90;;;;;;5060840;28;20507;-66
2021/05/12 00:32:40;;;;;;;9.48;8.48;;;12.80;99.90;;;;;;5059544;28;20041;-66
2021/05/12 00:35:08;;;;;;;10.30;9.25;;;12.80;99.90;;;;;;5059476;28;20048;-66
2021/05/12 00:37:34;;;;;;;16.55;10.05;;;12.90;99.90;;;;;;5056714;28;20094;-66
2021/05/12 00:40:00;;;;;;;10.85;9.80;;;12.80;99.90;;;;;;5060881;28;20532;-66
2021/05/12 00:42:30;;;;;;;13.60;10.13;;;12.80;99.90;;;;;;5062030;28;20045;-66
2021/05/12 00:44:56;;;;;;;11.80;10.45;;;12.80;99.90;;;;;;5056730;28;20041;-66
2021/05/12 00:47:28;;;;;;;11.25;9.77;;;12.80;99.90;;;;;;5060063;28;20044;-66
2021/05/12 00:49:55;;;;;;;15.00;10.82;;;12.80;99.90;;;;;;5057542;28;20127;-66
2021/05/12 00:52:21;;;;;;;14.68;11.23;;;12.80;99.90;;;;;;5056856;28;20106;-66
2021/05/12 00:54:47;;;;;;;10.85;9.75;;;12.80;99.90;;;;;;5060220;28;20047;-66
2021/05/12 00:57:13;;;;;;;12.38;11.15;;;12.80;99.90;;;;;;5061279;28;20418;-66
2021/05/12 00:59:38;;;;;;;14.32;10.88;;;12.70;99.90;;;;;;5057889;28;20028;-66
2021/05/12 01:02:07;;;;;;;12.13;10.77;;;12.80;99.90;;;;;;5059644;28;20036;-66
2021/05/12 01:04:34;;;;;;;11.98;10.80;;;12.80;99.90;;;;;;5061696;28;20071;-66
2021/05/12 01:06:59;;;;;;;12.25;10.25;;;12.70;99.90;;;;;;5054862;28;20437;-66
2021/05/12 01:09:25;;;;;;;12.07;10.73;;;12.70;99.90;;;;;;5060358;28;20037;-66
2021/05/12 01:11:51;;;;;;;14.35;11.10;;;12.70;99.90;;;;;;5058460;28;20044;-66
2021/05/12 01:14:16;;;;;;;15.80;13.27;;;12.70;99.90;;;;;;5059208;28;20067;-66
2021/05/12 01:16:44;;;;;;;14.10;11.57;;;12.70;99.90;;;;;;5059180;28;20041;-66
2021/05/12 01:19:10;;;;;;;13.18;11.25;;;12.70;99.90;;;;;;5058846;28;20036;-66
2021/05/12 01:21:37;;;;;;;12.45;11.25;;;12.70;99.90;;;;;;5054934;28;20057;-66
2021/05/12 01:24:03;;;;;;;13.07;11.60;;;12.70;99.90;;;;;;5058351;28;20571;-66
2021/05/12 01:26:28;;;;;;;13.25;11.95;;;12.70;99.90;;;;;;5057942;28;20135;-66
2021/05/12 01:28:55;;;;;;;15.40;12.57;;;12.60;99.90;;;;;;5058698;28;20383;-66
2021/05/12 01:31:33;;;;;;;13.07;11.73;;;12.70;99.90;;;;;;5056804;28;20097;-66
2021/05/12 01:34:03;;;;;;;13.75;12.35;;;12.60;99.90;;;;;;5057927;28;20387;-66
2021/05/12 01:36:30;;;;;;;15.15;13.63;;;12.60;99.90;;;;;;5061627;28;20044;-66
2021/05/12 01:38:57;;;;;;;14.02;12.65;;;12.60;99.90;;;;;;5059021;28;20044;-66
2021/05/12 01:41:24;;;;;;;14.18;12.25;;;12.60;99.90;;;;;;5060417;28;20682;-66
2021/05/12 01:43:51;;;;;;;13.15;11.95;;;12.60;99.90;;;;;;5058455;28;20120;-66
2021/05/12 01:46:17;;;;;;;13.10;11.77;;;12.60;99.90;;;;;;5060604;28;20047;-66
2021/05/12 01:48:44;;;;;;;13.68;12.40;;;12.60;99.90;;;;;;5054834;28;20052;-66
2021/05/12 01:51:11;;;;;;;12.55;11.27;;;12.60;99.90;;;;;;5058337;28;20040;-66
2021/05/12 01:53:37;;;;;;;13.48;11.23;;;12.60;99.90;;;;;;5057947;28;20415;-66
2021/05/12 01:56:03;;;;;;;19.20;12.15;;;12.60;99.90;;;;;;5057874;28;20036;-66
2021/05/12 01:58:29;;;;;;;16.90;12.43;;;12.60;99.90;;;;;;5058668;28;20083;-66
2021/05/12 02:00:55;;;;;;;14.52;11.18;;;12.60;99.90;;;;;;5058041;28;20438;-66
2021/05/12 02:03:22;;;;;;;12.90;11.63;;;12.60;99.90;;;;;;5059097;28;20044;-66
2021/05/12 02:05:50;;;;;;;13.63;12.32;;;12.60;99.90;;;;;;5057918;28;21673;-66
2021/05/12 02:08:19;;;;;;;15.10;13.35;;;12.60;99.90;;;;;;5060286;28;20037;-66
2021/05/12 02:10:45;;;;;;;14.35;12.73;;;12.60;99.90;;;;;;5058655;28;20051;-66
2021/05/12 02:13:13;;;;;;;15.20;11.65;;;12.60;99.90;;;;;;5057399;28;20033;-66
2021/05/12 02:15:40;;;;;;;17.30;12.65;;;12.50;99.90;;;;;;5058409;28;20036;-65
2021/05/12 02:18:06;;;;;;;21.83;16.05;;;12.50;99.90;;;;;;5056745;28;20147;-66
2021/05/12 02:20:34;;;;;;;16.83;13.57;;;12.50;99.90;;;;;;5056963;28;20044;-66
2021/05/12 02:23:02;;;;;;;15.75;14.02;;;12.40;99.90;;;;;;5054953;28;20166;-66
2021/05/12 02:25:28;;;;;;;15.48;13.50;;;12.40;99.90;;;;;;5058274;28;20037;-66
2021/05/12 02:27:54;;;;;;;17.50;15.70;;;12.40;99.90;;;;;;5058777;28;20040;-66
2021/05/12 02:30:20;;;;;;;18.33;14.10;;;12.40;99.90;;;;;;5059542;28;20064;-66
2021/05/12 02:32:46;;;;;;;16.35;14.43;;;12.40;99.90;;;;;;5065720;28;20391;-66
2021/05/12 02:35:14;;;;;;;18.25;15.40;;;12.40;99.90;;;;;;5070049;28;20053;-66
2021/05/12 02:37:40;;;;;;;15.90;13.38;;;12.30;99.90;;;;;;5070611;28;20189;-66
2021/05/12 02:40:09;;;;;;;18.00;15.32;;;12.20;99.90;;;;;;5071753;28;20032;-66
2021/05/12 02:42:36;;;;;;;17.35;14.63;;;12.30;99.90;;;;;;5068459;28;20040;-66
2021/05/12 02:45:06;;;;;;;20.48;15.90;;;12.30;99.90;;;;;;5070636;28;20374;-66
2021/05/12 02:47:32;;;;;;;20.95;16.77;;;12.20;99.90;;;;;;5071265;28;20089;-66
2021/05/12 02:49:58;;;;;;;28.27;18.10;;;12.20;99.90;;;;;;5071337;28;20072;-66
2021/05/12 02:52:24;;;;;;;22.35;16.45;;;12.10;99.90;;;;;;5072339;28;20063;-66
2021/05/12 02:54:50;;;;;;;23.00;17.55;;;12.20;99.90;;;;;;5071377;28;20066;-66
2021/05/12 02:57:16;;;;;;;20.80;16.25;;;12.20;99.90;;;;;;5071275;28;20044;-66
2021/05/12 02:59:41;;;;;;;25.67;17.25;;;12.20;99.90;;;;;;5069174;28;20044;-66
2021/05/12 03:02:11;;;;;;;22.90;18.08;;;12.10;99.90;;;;;;5072087;28;20044;-66
2021/05/12 03:04:36;;;;;;;21.60;17.15;;;12.40;99.90;;;;;;5068361;28;20087;-66
2021/05/12 03:07:02;;;;;;;23.58;17.40;;;12.20;99.90;;;;;;5071555;28;20503;-66
2021/05/12 03:09:28;;;;;;;25.13;17.25;;;12.20;99.90;;;;;;5071722;28;20037;-66
2021/05/12 03:11:54;;;;;;;23.73;16.95;;;12.20;99.90;;;;;;5071381;28;20449;-66
2021/05/12 03:14:21;;;;;;;24.23;18.17;;;12.20;99.90;;;;;;5070783;28;20063;-66
2021/05/12 03:16:47;;;;;;;30.60;19.58;;;12.20;99.90;;;;;;5067520;28;20132;-66
2021/05/12 03:19:14;;;;;;;28.55;19.92;;;12.30;99.90;;;;;;5061170;28;20119;-66
2021/05/12 03:21:42;;;;;;;25.63;18.85;;;12.30;99.90;;;;;;5063836;28;20191;-66
2021/05/12 03:24:08;;;;;;;22.75;18.77;;;12.20;99.90;;;;;;5061282;28;20032;-66
2021/05/12 03:26:35;;;;;;;23.70;18.50;;;12.20;99.90;;;;;;5059102;28;20041;-66
2021/05/12 03:29:03;;;;;;;23.27;18.33;;;12.20;99.90;;;;;;5057702;28;20040;-66
2021/05/12 03:31:28;;;;;;;26.75;19.17;;;12.20;99.90;;;;;;5056313;28;20036;-66
2021/05/12 03:33:57;;;;;;;24.92;19.02;;;12.20;99.90;;;;;;5058960;28;20041;-66
2021/05/12 03:36:24;;;;;;;24.48;19.33;;;12.20;99.90;;;;;;5059583;28;20119;-66
2021/05/12 03:38:50;;;;;;;23.52;18.40;;;12.20;99.90;;;;;;5056615;28;20048;-66
2021/05/12 03:41:16;;;;;;;23.73;19.35;;;12.20;99.90;;;;;;5057492;28;20043;-66
2021/05/12 03:43:43;;;;;;;23.77;19.95;;;12.20;99.90;;;;;;5060189;28;20052;-66
2021/05/12 03:46:09;;;;;;;24.58;18.80;;;12.20;99.90;;;;;;5061590;28;20045;-66
2021/05/12 03:48:34;;;;;;;25.75;19.45;;;12.10;99.90;;;;;;5057748;28;20036;-66
2021/05/12 03:51:00;;;;;;;26.20;18.73;;;12.10;99.90;;;;;;5059415;28;20120;-66
2021/05/12 03:53:27;;;;;;;24.83;17.88;;;12.10;99.90;;;;;;5057439;28;20075;-66
2021/05/12 03:55:53;;;;;;;23.35;18.88;;;12.10;99.90;;;;;;5055732;28;20048;-66
2021/05/12 03:58:19;;;;;;;26.55;19.80;;;12.10;99.90;;;;;;5060341;28;20041;-66
2021/05/12 04:00:48;;;;;;;26.13;19.10;;;12.00;99.90;;;;;;5057759;28;20060;-66
2021/05/12 04:03:14;;;;;;;27.52;18.25;;;12.10;99.90;;;;;;5058707;28;20116;-66
2021/05/12 04:05:40;;;;;;;23.02;19.92;;;12.00;99.90;;;;;;5059162;28;20037;-66
2021/05/12 04:08:06;;;;;;;32.78;22.15;;;12.00;99.90;;;;;;5059649;28;20036;-66
2021/05/12 04:10:32;;;;;;;27.27;21.90;;;12.00;99.90;;;;;;5061803;28;20048;-66
2021/05/12 04:12:58;;;;;;;30.02;21.23;;;12.00;99.90;;;;;;5061646;28;20045;-66
2021/05/12 04:15:24;;;;;;;31.13;23.27;;;12.00;99.90;;;;;;5061334;28;20482;-66
2021/05/12 04:17:50;;;;;;;29.75;22.27;;;12.00;99.90;;;;;;5060467;28;21605;-66
2021/05/12 04:20:18;;;;;;;36.85;24.92;;;12.00;99.90;;;;;;5058074;28;20117;-66
2021/05/12 04:22:45;;;;;;;28.73;23.58;;;12.00;99.90;;;;;;5064976;28;20384;-66
2021/05/12 04:25:20;;;;;;;25.90;21.17;;;12.00;99.90;;;;;;5067459;28;20041;-66
2021/05/12 04:27:46;;;;;;;27.43;22.90;;;12.00;99.90;;;;;;5059053;28;20090;-66
2021/05/12 04:30:13;;;;;;;29.85;21.88;;;12.00;99.90;;;;;;5061303;28;20037;-66
2021/05/12 04:32:41;;;;;;;25.70;20.15;;;12.00;99.90;;;;;;5064408;28;20043;-65
2021/05/12 04:35:07;;;;;;;25.80;20.42;;;12.10;99.90;;;;;;5060927;28;20052;-66
2021/05/12 04:37:33;;;;;;;24.27;20.88;;;12.10;99.90;;;;;;5061711;28;20039;-66
2021/05/12 04:39:59;;;;;;;26.17;21.65;;;12.20;99.90;;;;;;5058367;28;20036;-66
2021/05/12 04:42:25;;;;;;;24.98;20.73;;;12.20;99.90;;;;;;5059401;28;20037;-66
2021/05/12 04:44:55;;;;;;;29.88;21.85;;;12.30;99.90;;;;;;5059703;28;20060;-66
2021/05/12 04:47:21;;;;;;;25.25;20.42;;;12.40;99.90;;;;;;5061547;28;20040;-65
2021/05/12 04:49:47;;;;;;;21.67;19.40;;;12.50;99.90;;;;;;5066041;28;20036;-66
2021/05/12 04:52:13;;;;;;;25.45;20.98;;;12.60;99.90;;;;;;5062797;28;20098;-66
2021/05/12 04:54:39;;;;;;;24.75;20.88;;;12.70;99.90;;;;;;5067019;28;20056;-66
2021/05/12 04:57:05;;;;;;;25.17;20.10;;;12.70;99.90;;;;;;5061691;28;20399;-66
2021/05/12 04:59:31;;;;;;;31.50;23.75;;;12.70;99.90;;;;;;5060575;28;20135;-66
2021/05/12 05:01:58;;;;;;;22.63;20.17;;;12.70;99.90;;;;;;5063245;28;20110;-66
2021/05/12 05:04:24;;;;;;;22.80;19.80;;;12.70;99.90;;;;;;5065956;28;20036;-66
2021/05/12 05:06:50;;;;;;;21.83;19.63;;;12.70;99.90;;;;;;5062907;28;20095;-66
2021/05/12 05:09:16;;;;;;;21.50;18.65;;;12.70;99.90;;;;;;5065569;28;20040;-66
2021/05/12 05:11:42;;;;;;;17.98;16.17;;;12.90;99.90;;;;;;5059857;28;20071;-66
2021/05/12 05:14:08;;;;;;;15.23;13.70;;;13.40;99.90;;;;;;5061077;28;20072;-66
2021/05/12 05:16:34;;;;;;;14.45;12.95;;;14.10;99.90;;;;;;5066490;28;20494;-66
2021/05/12 05:19:00;;;;;;;14.55;13.05;;;15.20;99.90;;;;;;5070863;28;20050;-65
2021/05/12 05:21:26;;;;;;;12.05;10.93;;;16.40;99.90;;;;;;5066883;28;20037;-66
2021/05/12 05:23:54;;;;;;;11.55;10.55;;;17.50;99.90;;;;;;5069607;28;20064;-66
2021/05/12 05:26:20;;;;;;;12.52;11.05;;;18.70;98.30;;;;;;5067871;28;20135;-66
2021/05/12 05:28:46;;;;;;;10.85;9.75;;;19.80;95.00;;;;;;5070437;28;20116;-66
2021/05/12 05:31:12;;;;;;;10.95;9.52;;;20.50;93.20;;;;;;5066498;28;20046;-66
2021/05/12 05:33:37;;;;;;;10.75;9.75;;;21.20;91.60;;;;;;5068864;28;20052;-66
2021/05/12 05:36:03;;;;;;;8.20;7.25;;;21.90;88.40;;;;;;5069062;28;20506;-66
2021/05/12 05:38:29;;;;;;;9.60;7.78;;;22.20;84.20;;;;;;5068934;28;20044;-66
2021/05/12 05:40:55;;;;;;;7.80;7.00;;;22.50;82.80;;;;;;5068791;28;20366;-66
2021/05/12 05:43:21;;;;;;;8.88;7.20;;;22.80;82.90;;;;;;5070340;28;20048;-66
2021/05/12 05:45:47;;;;;;;7.80;6.68;;;23.00;81.10;;;;;;5067886;28;20040;-66
2021/05/12 05:48:13;;;;;;;8.80;5.95;;;22.90;81.10;;;;;;5068722;28;20098;-66
2021/05/12 05:50:38;;;;;;;7.72;6.03;;;22.70;77.70;;;;;;5068729;28;20033;-66
2021/05/12 05:53:04;;;;;;;8.55;6.13;;;22.30;80.10;;;;;;5069268;28;20032;-66
2021/05/12 05:55:30;;;;;;;6.47;4.55;;;22.00;81.70;;;;;;5068143;28;20131;-66
2021/05/12 05:57:56;;;;;;;6.70;5.10;;;21.60;80.70;;;;;;5068205;28;20044;-66
2021/05/12 06:00:22;;;;;;;7.75;4.85;;;21.30;81.50;;;;;;5066731;28;20040;-66
2021/05/12 06:02:49;;;;;;;4.88;4.25;;;21.00;82.70;;;;;;5065299;28;20063;-66
2021/05/12 06:05:15;;;;;;;5.72;4.03;;;20.80;82.10;;;;;;5064762;28;20037;-66
2021/05/12 06:07:41;;;;;;;8.35;4.47;;;20.70;82.60;;;;;;5062429;28;20035;-66
2021/05/12 06:10:08;;;;;;;6.53;3.55;;;20.60;79.20;;;;;;5065059;28;20505;-66
2021/05/12 06:12:34;;;;;;;8.10;4.22;;;20.40;79.60;;;;;;5062507;28;20111;-66
2021/05/12 06:15:01;;;;;;;4.65;3.28;;;20.20;80.20;;;;;;5062410;28;20120;-66
2021/05/12 06:17:27;;;;;;;11.73;3.80;;;20.10;81.10;;;;;;5057217;28;20040;-66
2021/05/12 06:19:54;;;;;;;8.90;3.33;;;20.00;80.50;;;;;;5058245;28;20505;-66
2021/05/12 06:22:20;;;;;;;6.32;3.10;;;20.00;82.50;;;;;;5056047;28;20043;-66
2021/05/12 06:24:46;;;;;;;5.93;2.97;;;20.00;82.10;;;;;;5057475;28;20033;-66
2021/05/12 06:27:13;;;;;;;5.88;2.78;;;20.00;80.40;;;;;;5057710;28;20393;-66
2021/05/12 06:29:39;;;;;;;6.43;2.80;;;19.90;79.90;;;;;;5059259;28;20396;-66
2021/05/12 06:32:08;;;;;;;6.63;3.10;;;20.00;80.30;;;;;;5057157;28;20040;-66
2021/05/12 06:34:37;;;;;;;8.45;3.30;;;20.10;79.40;;;;;;5062904;28;20407;-67
2021/05/12 06:37:03;;;;;;;7.60;3.70;;;20.10;78.50;;;;;;5058181;28;20048;-66
2021/05/12 06:39:29;;;;;;;5.57;2.50;;;20.10;80.30;;;;;;5057477;28;20040;-66
2021/05/12 06:41:55;;;;;;;8.63;3.33;;;20.10;80.80;;;;;;5056353;28;20399;-66
2021/05/12 06:44:22;;;;;;;6.40;1.92;;;20.10;77.20;;;;;;5056584;28;20041;-66
2021/05/12 06:46:48;;;;;;;7.20;2.42;;;20.10;77.80;;;;;;5059112;28;20064;-67
2021/05/12 06:49:14;;;;;;;7.13;2.75;;;20.10;76.80;;;;;;5060958;28;20079;-66
2021/05/12 06:51:40;;;;;;;8.75;3.08;;;20.00;75.50;;;;;;5055594;28;20037;-66
2021/05/12 06:54:06;;;;;;;8.82;2.90;;;19.90;75.80;;;;;;5057162;28;20617;-66
2021/05/12 06:56:31;;;;;;;9.57;2.92;;;20.00;78.60;;;;;;5057340;28;20044;-66
2021/05/12 06:58:57;;;;;;;9.48;2.45;;;20.10;76.90;;;;;;5057703;28;20651;-66
2021/05/12 07:01:23;;;;;;;8.32;2.58;;;20.00;74.30;;;;;;5055571;28;20047;-66
2021/05/12 07:03:49;;;;;;;6.43;2.75;;;20.10;78.10;;;;;;5058330;28;20068;-67
2021/05/12 07:06:15;;;;;;;7.88;2.28;;;20.20;76.90;;;;;;5060445;28;21167;-67
2021/05/12 07:08:40;;;;;;;5.35;2.10;;;20.20;74.90;;;;;;5056559;28;20044;-67
2021/05/12 07:11:07;;;;;;;5.72;1.98;;;20.20;76.30;;;;;;5056212;28;20045;-67
2021/05/12 07:13:33;;;;;;;5.13;1.75;;;20.00;71.70;;;;;;5056999;28;20051;-67
2021/05/12 07:16:00;;;;;;;6.22;2.05;;;19.90;74.40;;;;;;5057813;28;20040;-66
2021/05/12 07:18:26;;;;;;;5.50;1.67;;;20.00;77.20;;;;;;5057515;28;20132;-66
2021/05/12 07:20:53;;;;;;;5.90;2.30;;;20.20;75.30;;;;;;5057936;28;20489;-66
2021/05/12 07:23:20;;;;;;;5.97;1.90;;;20.30;75.80;;;;;;5057189;28;20037;-67
2021/05/12 07:25:48;;;;;;;2.80;1.70;;;20.40;75.40;;;;;;5055218;28;20056;-67
2021/05/12 07:28:14;;;;;;;3.67;1.55;;;20.60;75.90;;;;;;5056966;28;20091;-67
2021/05/12 07:30:42;;;;;;;9.32;1.85;;;20.60;74.70;;;;;;5058521;28;20055;-67
2021/05/12 07:33:08;;;;;;;4.95;1.42;;;20.70;70.90;;;;;;5056958;28;20072;-67
2021/05/12 07:35:34;;;;;;;4.07;1.67;;;20.70;73.30;;;;;;5060056;28;20495;-67
2021/05/12 07:38:06;;;;;;;4.93;1.52;;;20.70;72.60;;;;;;5055341;28;20040;-67
2021/05/12 07:40:34;;;;;;;4.78;1.13;;;20.80;73.50;;;;;;5056257;28;20413;-67
2021/05/12 07:43:03;;;;;;;3.95;1.20;;;20.60;70.90;;;;;;5056365;28;20040;-67
2021/05/12 07:45:29;;;;;;;7.65;1.75;;;20.70;73.90;;;;;;5055927;28;20039;-67
2021/05/12 07:47:55;;;;;;;6.10;1.73;;;20.60;69.80;;;;;;5055281;28;20501;-67
2021/05/12 07:50:22;;;;;;;6.03;2.08;;;20.20;70.80;;;;;;5060847;28;20114;-67
2021/05/12 07:52:48;;;;;;;4.45;1.52;;;20.30;72.70;;;;;;5055016;28;20482;-67
2021/05/12 07:55:13;;;;;;;7.45;1.55;;;20.40;73.60;;;;;;5058870;28;20098;-67
2021/05/12 07:57:40;;;;;;;7.38;1.55;;;20.50;72.70;;;;;;5056180;28;20048;-67
2021/05/12 08:00:08;;;;;;;5.97;1.77;;;20.70;72.90;;;;;;5055827;28;20045;-67
2021/05/12 08:02:35;;;;;;;4.40;1.48;;;20.80;73.10;;;;;;5055567;28;20044;-67
2021/05/12 08:05:00;;;;;;;4.82;1.50;;;20.90;72.30;;;;;;5054683;28;20033;-67
2021/05/12 08:07:46;;;;;;;;;;;21.10;73.20;;;;;;5080938;27;20040;-67
2021/05/12 08:10:32;;;;;;;6.50;1.25;;;20.90;67.60;;;;;;5059853;28;19924;-67
2021/05/12 08:13:00;;;;;;;7.35;1.48;;;20.50;68.90;;;;;;5055113;28;20033;-67
2021/05/12 08:15:28;;;;;;;4.13;1.10;;;20.40;70.80;;;;;;5060457;28;20514;-67
2021/05/12 08:17:53;;;;;;;6.30;0.80;;;20.50;72.10;;;;;;5058485;28;20036;-67
2021/05/12 08:20:24;;;;;;;2.70;0.60;;;20.50;71.10;;;;;;5087823;28;20044;-67
2021/05/12 08:22:57;;;;;;;4.93;1.38;;;20.60;70.40;;;;;;5056255;28;20108;-67
2021/05/12 08:25:23;;;;;;;5.15;0.80;;;20.50;69.30;;;;;;5055477;28;20047;-67
2021/05/12 08:27:53;;;;;;;4.85;0.90;;;20.50;69.40;;;;;;5055594;28;20053;-67
2021/05/12 08:30:23;;;;;;;4.18;1.00;;;20.60;67.50;;;;;;5057593;28;21327;-67
2021/05/12 08:32:50;;;;;;;5.30;1.00;;;20.40;69.50;;;;;;5056868;28;20028;-67
2021/05/12 08:35:39;;;;;;;5.57;0.80;;;20.40;70.30;;;;;;5083170;27;20045;-67
2021/05/12 08:38:14;;;;;;;3.88;0.65;;;20.50;69.70;;;;;;5055792;28;20843;-67
2021/05/12 08:40:42;;;;;;;6.30;0.90;;;20.50;68.90;;;;;;5055011;28;20037;-67
2021/05/12 08:43:08;;;;;;;3.65;0.80;;;20.60;69.00;;;;;;5053981;28;20123;-67
2021/05/12 08:45:35;;;;;;;3.72;0.80;;;20.50;67.90;;;;;;5054999;28;20052;-67
2021/05/12 08:48:05;;;;;;;3.33;0.60;;;20.30;67.50;;;;;;5056060;28;20095;-67
2021/05/12 08:50:31;;;;;;;4.57;0.90;;;20.40;71.40;;;;;;5055005;28;20033;-67
2021/05/12 08:52:59;;;;;;;5.78;1.00;;;20.70;69.80;;;;;;5058350;28;20036;-67
2021/05/12 08:55:25;;;;;;;7.50;2.63;;;20.80;69.10;;;;;;5053054;28;20049;-67
2021/05/12 08:57:51;;;;;;;7.05;0.98;;;20.50;61.00;;;;;;5055161;28;20036;-67
2021/05/12 09:00:17;;;;;;;6.30;0.70;;;20.30;65.90;;;;;;5054995;28;20044;-67
2021/05/12 09:02:44;;;;;;;7.07;0.90;;;20.30;64.60;;;;;;5056285;28;20090;-67
2021/05/12 09:05:10;;;;;;;7.00;1.50;;;20.10;66.20;;;;;;5056175;28;20037;-67
2021/05/12 09:07:36;;;;;;;3.67;0.63;;;19.90;63.50;;;;;;5086071;28;20462;-67
2021/05/12 09:10:04;;;;;;;3.92;0.60;;;19.90;65.80;;;;;;5053892;28;20037;-67
2021/05/12 09:12:47;;;;;;;4.90;0.85;;;19.80;63.80;;;;;;5057697;28;20097;-67
2021/05/12 09:15:17;;;;;;;4.32;0.90;;;19.90;64.60;;;;;;5057287;28;20062;-67
2021/05/12 09:17:45;;;;;;;3.35;0.52;;;20.00;65.90;;;;;;5056686;28;20033;-67
2021/05/12 09:20:20;;;;;;;4.82;0.90;;;20.20;66.40;;;;;;5055623;28;20044;-67
2021/05/12 09:22:59;;;;;;;4.60;0.85;;;20.30;66.30;;;;;;5054289;28;20071;-67
2021/05/12 09:25:26;;;;;;;6.05;0.88;;;20.40;65.30;;;;;;5052742;28;20044;-67
2021/05/12 09:27:52;;;;;;;7.95;1.20;;;20.50;66.50;;;;;;5053025;28;20120;-67
2021/05/12 09:30:22;;;;;;;7.82;1.10;;;20.60;65.70;;;;;;5055267;28;20380;-67
2021/05/12 09:32:48;;;;;;;7.60;1.00;;;20.80;67.80;;;;;;5054809;28;20139;-67
2021/05/12 09:35:15;;;;;;;4.25;1.63;;;21.00;68.50;;;;;;5054139;28;20048;-67
2021/05/12 09:37:42;;;;;;;4.78;0.80;;;20.90;63.30;;;;;;5054009;28;20045;-67
2021/05/12 09:40:17;;;;;;;5.60;0.82;;;20.80;60.90;;;;;;5056660;28;20033;-67
2021/05/12 09:42:44;;;;;;;2.53;0.75;;;20.70;61.20;;;;;;5058254;28;20040;-68
2021/05/12 09:45:21;;;;;;;8.15;1.02;;;20.50;62.40;;;;;;5056745;28;20040;-68
2021/05/12 09:47:50;;;;;;;5.63;0.90;;;20.70;64.00;;;;;;5058052;28;20041;-67
2021/05/12 09:50:25;;;;;;;5.65;0.82;;;20.90;64.50;;;;;;5059107;28;20036;-67
2021/05/12 09:52:57;;;;;;;5.75;0.98;;;21.00;64.50;;;;;;5059916;28;20387;-68
2021/05/12 09:55:40;;;;;;;3.17;0.70;;;21.20;65.00;;;;;;5057867;28;20059;-67
2021/05/12 09:58:11;;;;;;;6.13;1.20;;;21.30;65.10;;;;;;5060604;28;20045;-67
2021/05/12 10:00:39;;;;;;;4.35;0.85;;;21.30;64.80;;;;;;5060664;28;20037;-68
2021/05/12 10:03:06;;;;;;;6.05;1.55;;;21.50;63.20;;;;;;5057544;28;20040;-67
2021/05/12 10:05:52;;;;;;;4.32;1.25;;;21.40;58.70;;;;;;5059753;28;20040;-67
2021/05/12 10:08:23;;;;;;;5.28;0.70;;;21.30;59.10;;;;;;5060058;28;20033;-67
2021/05/12 10:10:56;;;;;;;6.20;0.88;;;21.10;60.10;;;;;;5059332;28;20036;-68
2021/05/12 10:13:22;;;;;;;4.60;0.90;;;21.20;62.00;;;;;;5076657;28;20479;-68
2021/05/12 10:15:48;;;;;;;7.03;1.02;;;21.10;59.30;;;;;;5059345;28;20090;-68
2021/05/12 10:18:14;;;;;;;4.15;0.98;;;21.20;58.60;;;;;;5062594;28;20503;-68
2021/05/12 10:20:40;;;;;;;7.50;1.10;;;21.10;59.10;;;;;;5088927;27;20491;-67
2021/05/12 10:23:07;;;;;;;7.28;0.80;;;21.00;59.60;;;;;;5059896;28;20033;-68
2021/05/12 10:25:33;;;;;;;7.53;1.55;;;20.80;59.10;;;;;;5057836;28;20139;-68
2021/05/12 10:28:00;;;;;;;9.55;1.77;;;20.80;62.10;;;;;;5055647;28;20059;-68
2021/05/12 10:30:27;;;;;;;5.80;1.27;;;20.90;61.70;;;;;;5062521;28;20028;-67
2021/05/12 10:32:56;;;;;;;6.60;1.42;;;21.00;62.10;;;;;;5060970;28;20043;-68
2021/05/12 10:35:37;;;;;;;4.85;1.10;;;21.00;61.30;;;;;;5062907;28;20595;-67
2021/05/12 10:38:04;;;;;;;5.65;0.88;;;21.00;59.50;;;;;;5057797;28;20846;-67
2021/05/12 10:40:39;;;;;;;11.93;1.65;;;21.10;60.60;;;;;;5089842;27;20040;-67
2021/05/12 10:43:30;;;;;;;5.50;2.05;;;21.20;64.50;;;;;;5060100;28;21664;-67
2021/05/12 10:48:28;;;;;;;9.25;1.60;;;21.40;65.60;;;;;;5056505;28;20053;-68
2021/05/12 10:50:54;;;;;;;7.60;1.60;;;21.50;64.80;;;;;;5060013;28;20047;-68
2021/05/12 10:53:23;;;;;;;10.70;1.95;;;21.20;61.40;;;;;;5058072;28;20040;-67
2021/05/12 10:55:58;;;;;;;9.00;1.60;;;21.10;65.80;;;;;;5058406;28;20045;-68
2021/05/12 10:58:25;;;;;;;8.30;1.35;;;21.00;65.40;;;;;;5058007;28;20676;-67
2021/05/12 11:01:11;;;;;;;9.02;1.52;;;20.80;65.20;;;;;;5059177;28;20054;-67
2021/05/12 11:03:49;;;;;;;7.65;1.35;;;20.70;66.20;;;;;;5055279;28;20079;-67
2021/05/12 11:06:21;;;;;;;6.80;0.82;;;20.70;66.60;;;;;;5058131;28;20036;-67
2021/05/12 11:09:14;;;;;;;4.40;1.02;;;20.80;66.40;;;;;;5056509;28;20054;-67
2021/05/12 11:11:43;;;;;;;4.88;0.80;;;21.00;61.20;;;;;;5056371;28;20038;-67
2021/05/12 11:14:35;;;;;;;9.48;1.25;;;21.20;60.90;;;;;;5057775;28;20037;-68
2021/05/12 11:17:04;;;;;;;8.45;1.70;;;21.30;58.30;;;;;;5057202;28;20033;-68
2021/05/12 11:22:38;;;;;;;7.65;1.45;;;21.30;58.80;;;;;;5058179;28;20036;-68
2021/05/12 11:33:31;;;;;;;7.55;1.35;;;21.70;60.50;;;;;;5056296;28;20037;-68
2021/05/12 11:36:11;;;;;;;4.47;1.23;;;21.70;58.00;;;;;;5058023;28;20045;-68
2021/05/12 11:38:38;;;;;;;5.55;0.90;;;21.90;61.80;;;;;;5058413;28;20119;-68
2021/05/12 11:41:10;;;;;;;9.85;1.33;;;22.10;58.20;;;;;;5059740;28;20060;-68
2021/05/12 11:43:44;;;;;;;4.32;1.13;;;22.20;60.20;;;;;;5056748;28;20062;-68
2021/05/12 11:46:18;;;;;;;13.43;1.63;;;22.30;62.40;;;;;;5057051;28;20076;-68
2021/05/12 11:48:49;;;;;;;7.38;1.60;;;22.40;60.90;;;;;;5059264;28;20068;-68
2021/05/12 11:51:18;;;;;;;10.52;2.40;;;22.20;61.00;;;;;;5057305;28;20040;-68
2021/05/12 11:53:45;;;;;;;6.68;1.00;;;21.80;61.40;;;;;;5054216;28;20036;-68
2021/05/12 11:56:12;;;;;;;7.55;1.48;;;21.80;60.10;;;;;;5062564;28;20132;-68
2021/05/12 11:58:40;;;;;;;9.70;1.58;;;21.70;61.00;;;;;;5064265;28;20043;-68
2021/05/12 12:01:12;;;;;;;10.30;1.33;;;21.50;62.30;;;;;;5057921;28;20037;-68
2021/05/12 12:03:45;;;;;;;6.43;1.52;;;21.50;61.00;;;;;;5055636;28;20059;-67
2021/05/12 12:06:14;;;;;;;8.63;1.45;;;21.30;59.30;;;;;;5056568;28;20075;-68
2021/05/12 12:08:40;;;;;;;7.43;1.42;;;21.20;62.40;;;;;;5057972;28;20041;-68
2021/05/12 12:11:15;;;;;;;9.75;2.45;;;21.10;63.90;;;;;;5057480;28;20048;-68
2021/05/12 12:13:42;;;;;;;9.68;2.25;;;21.10;59.20;;;;;;5055673;28;20047;-67
2021/05/12 12:16:10;;;;;;;6.22;1.23;;;20.90;60.70;;;;;;5053883;28;20433;-68
2021/05/12 12:18:39;;;;;;;5.13;1.00;;;20.90;62.20;;;;;;5057716;28;20088;-68
2021/05/12 12:21:09;;;;;;;8.23;0.68;;;20.90;60.70;;;;;;5055974;28;20419;-67
2021/05/12 12:23:37;;;;;;;6.07;0.63;;;20.80;54.60;;;;;;5057065;28;20048;-67
2021/05/12 12:26:09;;;;;;;5.93;0.82;;;20.50;57.80;;;;;;5057006;28;20159;-67
2021/05/12 12:28:35;;;;;;;5.90;1.08;;;20.30;57.40;;;;;;5057548;28;20131;-68
2021/05/12 12:31:01;;;;;;;5.57;0.88;;;20.40;56.80;;;;;;5054932;28;20765;-68
2021/05/12 12:33:26;;;;;;;4.45;0.80;;;20.40;56.20;;;;;;5056043;28;20446;-68
2021/05/12 12:36:21;;;;;;;7.72;1.10;;;20.30;58.50;;;;;;5055738;28;20041;-68
2021/05/12 12:38:51;;;;;;;4.25;0.88;;;20.30;57.10;;;;;;5051969;28;20052;-68
2021/05/12 12:41:18;;;;;;;5.68;1.25;;;20.50;60.30;;;;;;5057061;28;20055;-68
2021/05/12 12:43:44;;;;;;;11.18;1.48;;;20.60;61.20;;;;;;5057029;28;20032;-68
2021/05/12 12:46:10;;;;;;;7.88;1.25;;;20.70;59.60;;;;;;5056074;28;20033;-68
2021/05/12 12:48:36;;;;;;;5.80;1.25;;;20.80;61.40;;;;;;5057386;28;20039;-68
2021/05/12 12:51:02;;;;;;;18.02;2.42;;;21.00;59.70;;;;;;5055054;28;20037;-68
2021/05/12 12:53:29;;;;;;;9.82;1.30;;;21.00;58.60;;;;;;5052245;28;20434;-68
2021/05/12 12:56:07;;;;;;;11.32;1.83;;;20.90;57.70;;;;;;5054242;28;22943;-68
2021/05/12 12:58:33;;;;;;;4.72;1.00;;;20.90;59.60;;;;;;5056944;28;20414;-68